sensor_id;sensor_type;location;lat;lon;timestamp;P1;durP1;ratioP1;P2;durP2;ratioP2
7545;SDS011;3814;51.454;12.616;2023-02-24T00:01:55;31.20;;;11.60;;
7545;SDS011;3814;51.454;12.616;2023-02-24T00:04:26;29.45;;;12.15;;
7545;SDS011;3814;51.454;12.616;2023-02-24T00:06:52;31.77;;;11.93;;
7545;SDS011;3814;51.454;12.616;2023-02-24T00:09:18;30.20;;;12.00;;
7545;SDS011;3814;51.454;12.616;2023-02-24T00:11:46;30.85;;;11.73;;
7545;SDS011;3814;51.454;12.616;2023-02-24T00:14:13;30.35;;;12.00;;
7545;SDS011;3814;51.454;12.616;2023-02-24T00:16:40;31.23;;;12.45;;
7545;SDS011;3814;51.454;12.616;2023-02-24T00:19:06;28.95;;;12.18;;
7545;SDS011;3814;51.454;12.616;2023-02-24T00:21:31;33.03;;;12.18;;
7545;SDS011;3814;51.454;12.616;2023-02-24T00:23:58;32.00;;;12.27;;
7545;SDS011;3814;51.454;12.616;2023-02-24T00:26:24;28.98;;;12.02;;
7545;SDS011;3814;51.454;12.616;2023-02-24T00:28:50;29.63;;;11.98;;
7545;SDS011;3814;51.454;12.616;2023-02-24T00:31:16;31.20;;;11.45;;
7545;SDS011;3814;51.454;12.616;2023-02-24T00:33:43;31.40;;;12.70;;
7545;SDS011;3814;51.454;12.616;2023-02-24T00:38:36;30.92;;;11.50;;
7545;SDS011;3814;51.454;12.616;2023-02-24T00:41:10;30.75;;;12.13;;
7545;SDS011;3814;51.454;12.616;2023-02-24T00:43:38;32.22;;;11.63;;
7545;SDS011;3814;51.454;12.616;2023-02-24T00:46:03;27.95;;;11.18;;
7545;SDS011;3814;51.454;12.616;2023-02-24T00:48:35;28.27;;;10.85;;
7545;SDS011;3814;51.454;12.616;2023-02-24T00:51:04;30.75;;;11.68;;
7545;SDS011;3814;51.454;12.616;2023-02-24T00:53:34;31.42;;;11.02;;
7545;SDS011;3814;51.454;12.616;2023-02-24T00:55:59;30.15;;;10.88;;
7545;SDS011;3814;51.454;12.616;2023-02-24T00:58:25;30.98;;;10.00;;
7545;SDS011;3814;51.454;12.616;2023-02-24T01:00:54;28.15;;;9.93;;
7545;SDS011;3814;51.454;12.616;2023-02-24T01:03:20;29.90;;;9.75;;
7545;SDS011;3814;51.454;12.616;2023-02-24T01:05:45;36.65;;;10.27;;
7545;SDS011;3814;51.454;12.616;2023-02-24T01:08:11;33.90;;;9.15;;
7545;SDS011;3814;51.454;12.616;2023-02-24T01:10:37;36.67;;;10.13;;
7545;SDS011;3814;51.454;12.616;2023-02-24T01:13:03;33.38;;;10.10;;
7545;SDS011;3814;51.454;12.616;2023-02-24T01:15:28;33.08;;;10.23;;
7545;SDS011;3814;51.454;12.616;2023-02-24T01:17:54;37.08;;;10.07;;
7545;SDS011;3814;51.454;12.616;2023-02-24T01:20:19;37.42;;;10.80;;
7545;SDS011;3814;51.454;12.616;2023-02-24T01:22:46;37.95;;;10.48;;
7545;SDS011;3814;51.454;12.616;2023-02-24T01:25:13;34.75;;;10.55;;
7545;SDS011;3814;51.454;12.616;2023-02-24T01:27:38;32.38;;;10.27;;
7545;SDS011;3814;51.454;12.616;2023-02-24T01:30:08;35.72;;;9.93;;
7545;SDS011;3814;51.454;12.616;2023-02-24T01:32:39;31.90;;;9.63;;
7545;SDS011;3814;51.454;12.616;2023-02-24T01:35:05;36.58;;;9.90;;
7545;SDS011;3814;51.454;12.616;2023-02-24T01:37:31;33.83;;;10.10;;
7545;SDS011;3814;51.454;12.616;2023-02-24T01:39:56;39.05;;;10.30;;
7545;SDS011;3814;51.454;12.616;2023-02-24T01:42:22;37.85;;;9.63;;
7545;SDS011;3814;51.454;12.616;2023-02-24T01:47:15;32.45;;;8.75;;
7545;SDS011;3814;51.454;12.616;2023-02-24T01:49:44;36.05;;;9.95;;
7545;SDS011;3814;51.454;12.616;2023-02-24T01:52:24;35.45;;;9.48;;
7545;SDS011;3814;51.454;12.616;2023-02-24T01:54:55;35.28;;;9.63;;
7545;SDS011;3814;51.454;12.616;2023-02-24T01:57:34;36.10;;;9.52;;
7545;SDS011;3814;51.454;12.616;2023-02-24T02:00:03;34.00;;;10.05;;
7545;SDS011;3814;51.454;12.616;2023-02-24T02:02:34;41.58;;;11.75;;
7545;SDS011;3814;51.454;12.616;2023-02-24T02:05:02;40.92;;;11.25;;
7545;SDS011;3814;51.454;12.616;2023-02-24T02:07:30;36.70;;;10.07;;
7545;SDS011;3814;51.454;12.616;2023-02-24T02:09:58;38.97;;;10.35;;
7545;SDS011;3814;51.454;12.616;2023-02-24T02:12:28;34.75;;;10.32;;
7545;SDS011;3814;51.454;12.616;2023-02-24T02:14:55;37.30;;;10.30;;
7545;SDS011;3814;51.454;12.616;2023-02-24T02:25:59;27.80;;;6.82;;
7545;SDS011;3814;51.454;12.616;2023-02-24T02:31:21;25.83;;;6.88;;
7545;SDS011;3814;51.454;12.616;2023-02-24T02:34:13;17.27;;;4.72;;
7545;SDS011;3814;51.454;12.616;2023-02-24T02:36:54;12.50;;;4.00;;
7545;SDS011;3814;51.454;12.616;2023-02-24T02:39:50;15.43;;;3.63;;
7545;SDS011;3814;51.454;12.616;2023-02-24T02:45:09;12.95;;;3.83;;
7545;SDS011;3814;51.454;12.616;2023-02-24T02:48:00;12.90;;;3.45;;
7545;SDS011;3814;51.454;12.616;2023-02-24T02:50:26;16.52;;;3.90;;
7545;SDS011;3814;51.454;12.616;2023-02-24T02:53:01;14.00;;;4.00;;
7545;SDS011;3814;51.454;12.616;2023-02-24T02:58:02;15.57;;;3.47;;
7545;SDS011;3814;51.454;12.616;2023-02-24T03:00:33;16.83;;;3.88;;
7545;SDS011;3814;51.454;12.616;2023-02-24T03:05:38;17.90;;;4.03;;
7545;SDS011;3814;51.454;12.616;2023-02-24T03:08:11;17.90;;;4.07;;
7545;SDS011;3814;51.454;12.616;2023-02-24T03:10:39;14.70;;;3.80;;
7545;SDS011;3814;51.454;12.616;2023-02-24T03:13:05;15.60;;;4.30;;
7545;SDS011;3814;51.454;12.616;2023-02-24T03:15:33;18.98;;;4.03;;
7545;SDS011;3814;51.454;12.616;2023-02-24T03:18:02;14.00;;;3.35;;
7545;SDS011;3814;51.454;12.616;2023-02-24T03:20:57;19.60;;;2.75;;
7545;SDS011;3814;51.454;12.616;2023-02-24T03:23:44;15.35;;;2.88;;
7545;SDS011;3814;51.454;12.616;2023-02-24T03:26:14;13.65;;;3.33;;
7545;SDS011;3814;51.454;12.616;2023-02-24T03:28:56;16.55;;;2.83;;
7545;SDS011;3814;51.454;12.616;2023-02-24T03:31:27;18.13;;;3.30;;
7545;SDS011;3814;51.454;12.616;2023-02-24T03:39:08;13.23;;;3.00;;
7545;SDS011;3814;51.454;12.616;2023-02-24T03:41:43;12.00;;;2.58;;
7545;SDS011;3814;51.454;12.616;2023-02-24T03:44:12;22.65;;;3.03;;
7545;SDS011;3814;51.454;12.616;2023-02-24T03:46:39;12.90;;;2.67;;
7545;SDS011;3814;51.454;12.616;2023-02-24T03:49:07;10.32;;;2.00;;
7545;SDS011;3814;51.454;12.616;2023-02-24T03:51:40;12.35;;;1.90;;
7545;SDS011;3814;51.454;12.616;2023-02-24T03:54:17;11.63;;;1.80;;
7545;SDS011;3814;51.454;12.616;2023-02-24T03:57:15;9.93;;;1.80;;
7545;SDS011;3814;51.454;12.616;2023-02-24T04:00:02;18.48;;;2.38;;
7545;SDS011;3814;51.454;12.616;2023-02-24T04:02:51;12.82;;;1.80;;
7545;SDS011;3814;51.454;12.616;2023-02-24T04:05:27;13.02;;;1.70;;
7545;SDS011;3814;51.454;12.616;2023-02-24T04:07:56;17.20;;;1.98;;
7545;SDS011;3814;51.454;12.616;2023-02-24T04:13:33;8.18;;;1.45;;
7545;SDS011;3814;51.454;12.616;2023-02-24T04:16:05;13.95;;;1.95;;
7545;SDS011;3814;51.454;12.616;2023-02-24T04:18:35;12.70;;;1.42;;
7545;SDS011;3814;51.454;12.616;2023-02-24T04:21:01;8.50;;;1.42;;
7545;SDS011;3814;51.454;12.616;2023-02-24T04:23:31;8.60;;;1.33;;
7545;SDS011;3814;51.454;12.616;2023-02-24T04:26:02;16.77;;;1.95;;
7545;SDS011;3814;51.454;12.616;2023-02-24T04:28:28;7.75;;;1.27;;
7545;SDS011;3814;51.454;12.616;2023-02-24T04:30:56;8.48;;;1.33;;
7545;SDS011;3814;51.454;12.616;2023-02-24T04:33:23;9.50;;;1.30;;
7545;SDS011;3814;51.454;12.616;2023-02-24T04:35:48;8.60;;;1.35;;
7545;SDS011;3814;51.454;12.616;2023-02-24T04:38:15;9.25;;;1.30;;
7545;SDS011;3814;51.454;12.616;2023-02-24T04:40:41;10.70;;;1.92;;
7545;SDS011;3814;51.454;12.616;2023-02-24T04:43:06;7.38;;;1.30;;
7545;SDS011;3814;51.454;12.616;2023-02-24T04:45:32;13.63;;;1.38;;
7545;SDS011;3814;51.454;12.616;2023-02-24T04:47:57;9.25;;;1.35;;
7545;SDS011;3814;51.454;12.616;2023-02-24T04:50:30;8.82;;;1.30;;
7545;SDS011;3814;51.454;12.616;2023-02-24T04:52:57;8.55;;;1.15;;
7545;SDS011;3814;51.454;12.616;2023-02-24T04:55:27;7.82;;;1.33;;
7545;SDS011;3814;51.454;12.616;2023-02-24T04:57:57;12.35;;;1.30;;
7545;SDS011;3814;51.454;12.616;2023-02-24T05:00:25;8.70;;;1.27;;
7545;SDS011;3814;51.454;12.616;2023-02-24T05:02:52;7.82;;;1.17;;
7545;SDS011;3814;51.454;12.616;2023-02-24T05:05:20;7.03;;;1.45;;
7545;SDS011;3814;51.454;12.616;2023-02-24T05:07:59;10.73;;;1.38;;
7545;SDS011;3814;51.454;12.616;2023-02-24T05:10:27;5.72;;;1.10;;
7545;SDS011;3814;51.454;12.616;2023-02-24T05:12:54;9.43;;;1.48;;
7545;SDS011;3814;51.454;12.616;2023-02-24T05:15:22;9.27;;;1.48;;
7545;SDS011;3814;51.454;12.616;2023-02-24T05:17:54;15.45;;;2.00;;
7545;SDS011;3814;51.454;12.616;2023-02-24T05:20:20;6.10;;;1.20;;
7545;SDS011;3814;51.454;12.616;2023-02-24T05:23:04;6.93;;;1.05;;
7545;SDS011;3814;51.454;12.616;2023-02-24T05:25:30;10.57;;;2.10;;
7545;SDS011;3814;51.454;12.616;2023-02-24T05:28:01;8.38;;;1.50;;
7545;SDS011;3814;51.454;12.616;2023-02-24T05:30:27;9.68;;;1.42;;
7545;SDS011;3814;51.454;12.616;2023-02-24T05:32:53;8.00;;;1.50;;
7545;SDS011;3814;51.454;12.616;2023-02-24T05:35:20;7.10;;;1.50;;
7545;SDS011;3814;51.454;12.616;2023-02-24T05:37:45;10.98;;;1.35;;
7545;SDS011;3814;51.454;12.616;2023-02-24T05:40:11;9.38;;;1.55;;
7545;SDS011;3814;51.454;12.616;2023-02-24T05:42:40;10.25;;;1.80;;
7545;SDS011;3814;51.454;12.616;2023-02-24T05:45:06;10.52;;;1.60;;
7545;SDS011;3814;51.454;12.616;2023-02-24T05:47:34;9.70;;;1.48;;
7545;SDS011;3814;51.454;12.616;2023-02-24T05:50:01;8.45;;;1.20;;
7545;SDS011;3814;51.454;12.616;2023-02-24T05:52:27;7.65;;;1.42;;
7545;SDS011;3814;51.454;12.616;2023-02-24T05:54:52;9.30;;;1.38;;
7545;SDS011;3814;51.454;12.616;2023-02-24T05:57:18;11.70;;;1.70;;
7545;SDS011;3814;51.454;12.616;2023-02-24T05:59:46;8.98;;;1.75;;
7545;SDS011;3814;51.454;12.616;2023-02-24T06:02:13;9.23;;;1.60;;
7545;SDS011;3814;51.454;12.616;2023-02-24T06:04:41;8.88;;;1.33;;
7545;SDS011;3814;51.454;12.616;2023-02-24T06:07:23;12.18;;;1.80;;
7545;SDS011;3814;51.454;12.616;2023-02-24T06:09:53;10.43;;;1.50;;
7545;SDS011;3814;51.454;12.616;2023-02-24T06:12:23;13.88;;;2.08;;
7545;SDS011;3814;51.454;12.616;2023-02-24T06:14:52;6.75;;;1.60;;
7545;SDS011;3814;51.454;12.616;2023-02-24T06:17:18;8.15;;;1.73;;
7545;SDS011;3814;51.454;12.616;2023-02-24T06:19:44;8.07;;;1.35;;
7545;SDS011;3814;51.454;12.616;2023-02-24T06:22:14;9.73;;;2.00;;
7545;SDS011;3814;51.454;12.616;2023-02-24T06:24:40;12.13;;;2.10;;
7545;SDS011;3814;51.454;12.616;2023-02-24T06:27:09;11.75;;;2.10;;
7545;SDS011;3814;51.454;12.616;2023-02-24T06:29:37;12.10;;;1.67;;
7545;SDS011;3814;51.454;12.616;2023-02-24T06:32:03;9.35;;;1.50;;
7545;SDS011;3814;51.454;12.616;2023-02-24T06:34:35;12.55;;;1.80;;
7545;SDS011;3814;51.454;12.616;2023-02-24T06:37:01;11.40;;;1.80;;
7545;SDS011;3814;51.454;12.616;2023-02-24T06:39:27;6.72;;;1.60;;
7545;SDS011;3814;51.454;12.616;2023-02-24T06:41:53;8.73;;;2.33;;
7545;SDS011;3814;51.454;12.616;2023-02-24T06:44:19;12.07;;;2.10;;
7545;SDS011;3814;51.454;12.616;2023-02-24T06:46:45;10.13;;;2.17;;
7545;SDS011;3814;51.454;12.616;2023-02-24T06:49:10;7.88;;;2.05;;
7545;SDS011;3814;51.454;12.616;2023-02-24T06:51:36;6.22;;;1.58;;
7545;SDS011;3814;51.454;12.616;2023-02-24T06:54:03;14.00;;;1.75;;
7545;SDS011;3814;51.454;12.616;2023-02-24T06:56:30;7.28;;;2.13;;
7545;SDS011;3814;51.454;12.616;2023-02-24T06:59:02;15.63;;;1.90;;
7545;SDS011;3814;51.454;12.616;2023-02-24T07:01:28;13.65;;;1.98;;
7545;SDS011;3814;51.454;12.616;2023-02-24T07:03:55;8.98;;;2.00;;
7545;SDS011;3814;51.454;12.616;2023-02-24T07:06:46;8.60;;;1.70;;
7545;SDS011;3814;51.454;12.616;2023-02-24T07:09:14;10.80;;;2.17;;
7545;SDS011;3814;51.454;12.616;2023-02-24T07:11:41;8.80;;;2.05;;
7545;SDS011;3814;51.454;12.616;2023-02-24T07:14:08;14.00;;;1.90;;
7545;SDS011;3814;51.454;12.616;2023-02-24T07:16:35;11.40;;;1.80;;
7545;SDS011;3814;51.454;12.616;2023-02-24T07:19:01;12.48;;;1.75;;
7545;SDS011;3814;51.454;12.616;2023-02-24T07:21:33;7.35;;;1.60;;
7545;SDS011;3814;51.454;12.616;2023-02-24T07:24:04;10.88;;;1.55;;
7545;SDS011;3814;51.454;12.616;2023-02-24T07:26:30;7.57;;;1.45;;
7545;SDS011;3814;51.454;12.616;2023-02-24T07:28:55;7.25;;;1.65;;
7545;SDS011;3814;51.454;12.616;2023-02-24T07:31:21;10.35;;;1.63;;
7545;SDS011;3814;51.454;12.616;2023-02-24T07:33:47;4.68;;;1.73;;
7545;SDS011;3814;51.454;12.616;2023-02-24T07:36:16;10.82;;;1.67;;
7545;SDS011;3814;51.454;12.616;2023-02-24T07:38:47;13.10;;;2.08;;
7545;SDS011;3814;51.454;12.616;2023-02-24T07:41:20;10.98;;;2.00;;
7545;SDS011;3814;51.454;12.616;2023-02-24T07:43:47;9.40;;;1.85;;
7545;SDS011;3814;51.454;12.616;2023-02-24T07:46:17;8.98;;;1.75;;
7545;SDS011;3814;51.454;12.616;2023-02-24T07:48:44;8.43;;;2.00;;
7545;SDS011;3814;51.454;12.616;2023-02-24T07:51:11;9.73;;;1.70;;
7545;SDS011;3814;51.454;12.616;2023-02-24T07:53:41;14.85;;;2.05;;
7545;SDS011;3814;51.454;12.616;2023-02-24T07:56:11;10.57;;;1.98;;
7545;SDS011;3814;51.454;12.616;2023-02-24T07:58:41;10.43;;;2.30;;
7545;SDS011;3814;51.454;12.616;2023-02-24T08:01:08;10.35;;;1.90;;
7545;SDS011;3814;51.454;12.616;2023-02-24T08:03:41;9.95;;;2.35;;
7545;SDS011;3814;51.454;12.616;2023-02-24T08:06:07;17.08;;;2.65;;
7545;SDS011;3814;51.454;12.616;2023-02-24T08:08:51;8.93;;;2.00;;
7545;SDS011;3814;51.454;12.616;2023-02-24T08:11:25;11.45;;;2.20;;
7545;SDS011;3814;51.454;12.616;2023-02-24T08:13:58;16.92;;;4.35;;
7545;SDS011;3814;51.454;12.616;2023-02-24T08:16:26;21.42;;;4.45;;
7545;SDS011;3814;51.454;12.616;2023-02-24T08:19:03;12.50;;;2.05;;
7545;SDS011;3814;51.454;12.616;2023-02-24T08:21:32;9.15;;;1.77;;
7545;SDS011;3814;51.454;12.616;2023-02-24T08:24:03;9.45;;;1.92;;
7545;SDS011;3814;51.454;12.616;2023-02-24T08:26:29;12.18;;;2.05;;
7545;SDS011;3814;51.454;12.616;2023-02-24T08:28:55;11.07;;;2.70;;
7545;SDS011;3814;51.454;12.616;2023-02-24T08:31:21;10.13;;;2.28;;
7545;SDS011;3814;51.454;12.616;2023-02-24T08:33:46;6.97;;;2.25;;
7545;SDS011;3814;51.454;12.616;2023-02-24T08:36:14;12.43;;;2.60;;
7545;SDS011;3814;51.454;12.616;2023-02-24T08:38:40;12.40;;;2.35;;
7545;SDS011;3814;51.454;12.616;2023-02-24T08:41:10;10.60;;;2.03;;
7545;SDS011;3814;51.454;12.616;2023-02-24T08:43:37;16.92;;;2.20;;
7545;SDS011;3814;51.454;12.616;2023-02-24T08:48:43;12.13;;;2.45;;
7545;SDS011;3814;51.454;12.616;2023-02-24T08:51:18;8.35;;;1.73;;
7545;SDS011;3814;51.454;12.616;2023-02-24T08:53:48;13.30;;;2.38;;
7545;SDS011;3814;51.454;12.616;2023-02-24T08:56:17;12.32;;;2.33;;
7545;SDS011;3814;51.454;12.616;2023-02-24T08:58:48;12.77;;;2.75;;
7545;SDS011;3814;51.454;12.616;2023-02-24T09:01:19;9.93;;;3.17;;
7545;SDS011;3814;51.454;12.616;2023-02-24T09:03:48;9.45;;;2.97;;
7545;SDS011;3814;51.454;12.616;2023-02-24T09:06:16;13.82;;;2.65;;
7545;SDS011;3814;51.454;12.616;2023-02-24T09:08:49;15.45;;;3.35;;
7545;SDS011;3814;51.454;12.616;2023-02-24T09:11:36;9.32;;;2.70;;
7545;SDS011;3814;51.454;12.616;2023-02-24T09:14:01;9.77;;;3.00;;
7545;SDS011;3814;51.454;12.616;2023-02-24T09:16:28;10.73;;;3.10;;
7545;SDS011;3814;51.454;12.616;2023-02-24T09:18:54;11.15;;;3.05;;
7545;SDS011;3814;51.454;12.616;2023-02-24T09:21:38;7.75;;;2.38;;
7545;SDS011;3814;51.454;12.616;2023-02-24T09:24:12;10.77;;;2.40;;
7545;SDS011;3814;51.454;12.616;2023-02-24T09:26:39;8.10;;;2.25;;
7545;SDS011;3814;51.454;12.616;2023-02-24T09:29:10;8.25;;;2.10;;
7545;SDS011;3814;51.454;12.616;2023-02-24T09:31:55;7.75;;;2.10;;
7545;SDS011;3814;51.454;12.616;2023-02-24T09:34:28;14.20;;;3.00;;
7545;SDS011;3814;51.454;12.616;2023-02-24T09:36:55;8.93;;;2.45;;
7545;SDS011;3814;51.454;12.616;2023-02-24T09:39:33;8.70;;;1.95;;
7545;SDS011;3814;51.454;12.616;2023-02-24T09:42:26;7.35;;;2.33;;
7545;SDS011;3814;51.454;12.616;2023-02-24T09:44:53;12.48;;;2.60;;
7545;SDS011;3814;51.454;12.616;2023-02-24T09:50:16;9.85;;;2.80;;
7545;SDS011;3814;51.454;12.616;2023-02-24T09:52:48;7.47;;;2.63;;
7545;SDS011;3814;51.454;12.616;2023-02-24T09:55:23;11.82;;;2.60;;
7545;SDS011;3814;51.454;12.616;2023-02-24T10:00:55;8.02;;;2.47;;
7545;SDS011;3814;51.454;12.616;2023-02-24T10:03:25;8.98;;;2.20;;
7545;SDS011;3814;51.454;12.616;2023-02-24T10:06:24;11.02;;;2.55;;
7545;SDS011;3814;51.454;12.616;2023-02-24T10:08:52;9.15;;;2.50;;
7545;SDS011;3814;51.454;12.616;2023-02-24T10:11:20;7.55;;;3.10;;
7545;SDS011;3814;51.454;12.616;2023-02-24T10:13:56;9.63;;;3.83;;
7545;SDS011;3814;51.454;12.616;2023-02-24T10:16:24;6.95;;;2.83;;
7545;SDS011;3814;51.454;12.616;2023-02-24T10:19:09;6.80;;;3.17;;
7545;SDS011;3814;51.454;12.616;2023-02-24T10:21:59;9.88;;;3.17;;
7545;SDS011;3814;51.454;12.616;2023-02-24T10:24:30;9.50;;;3.03;;
7545;SDS011;3814;51.454;12.616;2023-02-24T10:32:13;7.38;;;2.95;;
7545;SDS011;3814;51.454;12.616;2023-02-24T10:34:47;8.43;;;2.50;;
7545;SDS011;3814;51.454;12.616;2023-02-24T10:37:14;8.80;;;2.50;;
7545;SDS011;3814;51.454;12.616;2023-02-24T10:39:43;8.27;;;2.47;;
7545;SDS011;3814;51.454;12.616;2023-02-24T10:42:20;8.52;;;2.63;;
7545;SDS011;3814;51.454;12.616;2023-02-24T10:44:48;7.35;;;3.47;;
7545;SDS011;3814;51.454;12.616;2023-02-24T10:47:38;7.18;;;2.78;;
7545;SDS011;3814;51.454;12.616;2023-02-24T10:50:54;7.85;;;2.80;;
7545;SDS011;3814;51.454;12.616;2023-02-24T10:53:00;12.85;;;3.10;;
7545;SDS011;3814;51.454;12.616;2023-02-24T10:55:35;9.65;;;2.72;;
7545;SDS011;3814;51.454;12.616;2023-02-24T10:58:57;11.10;;;2.90;;
7545;SDS011;3814;51.454;12.616;2023-02-24T11:01:15;9.50;;;2.88;;
7545;SDS011;3814;51.454;12.616;2023-02-24T11:03:46;8.40;;;3.00;;
7545;SDS011;3814;51.454;12.616;2023-02-24T11:06:25;8.32;;;3.13;;
7545;SDS011;3814;51.454;12.616;2023-02-24T11:09:17;7.43;;;3.72;;
7545;SDS011;3814;51.454;12.616;2023-02-24T11:11:52;13.68;;;3.67;;
7545;SDS011;3814;51.454;12.616;2023-02-24T11:14:38;10.90;;;4.50;;
7545;SDS011;3814;51.454;12.616;2023-02-24T11:17:33;9.93;;;3.60;;
7545;SDS011;3814;51.454;12.616;2023-02-24T11:20:03;9.20;;;4.03;;
7545;SDS011;3814;51.454;12.616;2023-02-24T11:22:38;8.40;;;3.58;;
7545;SDS011;3814;51.454;12.616;2023-02-24T11:25:21;7.90;;;2.80;;
7545;SDS011;3814;51.454;12.616;2023-02-24T11:27:48;7.20;;;2.80;;
7545;SDS011;3814;51.454;12.616;2023-02-24T11:32:45;8.07;;;2.50;;
7545;SDS011;3814;51.454;12.616;2023-02-24T11:40:55;8.50;;;2.60;;
7545;SDS011;3814;51.454;12.616;2023-02-24T11:43:26;7.50;;;2.60;;
7545;SDS011;3814;51.454;12.616;2023-02-24T11:45:56;7.65;;;2.78;;
7545;SDS011;3814;51.454;12.616;2023-02-24T11:48:32;9.90;;;2.47;;
7545;SDS011;3814;51.454;12.616;2023-02-24T11:51:16;9.38;;;2.95;;
7545;SDS011;3814;51.454;12.616;2023-02-24T11:54:00;7.43;;;2.45;;
7545;SDS011;3814;51.454;12.616;2023-02-24T11:59:21;5.95;;;2.10;;
7545;SDS011;3814;51.454;12.616;2023-02-24T12:04:33;8.27;;;2.70;;
7545;SDS011;3814;51.454;12.616;2023-02-24T12:12:46;9.43;;;2.53;;
7545;SDS011;3814;51.454;12.616;2023-02-24T12:15:37;6.32;;;2.10;;
7545;SDS011;3814;51.454;12.616;2023-02-24T12:18:10;6.88;;;2.00;;
7545;SDS011;3814;51.454;12.616;2023-02-24T12:20:42;8.80;;;2.28;;
7545;SDS011;3814;51.454;12.616;2023-02-24T12:39:52;7.30;;;2.63;;
7545;SDS011;3814;51.454;12.616;2023-02-24T12:42:43;7.40;;;2.50;;
7545;SDS011;3814;51.454;12.616;2023-02-24T12:45:21;6.72;;;2.03;;
7545;SDS011;3814;51.454;12.616;2023-02-24T12:47:57;7.45;;;2.20;;
7545;SDS011;3814;51.454;12.616;2023-02-24T12:50:52;6.85;;;2.30;;
7545;SDS011;3814;51.454;12.616;2023-02-24T12:53:32;6.53;;;2.13;;
7545;SDS011;3814;51.454;12.616;2023-02-24T12:58:41;9.75;;;2.30;;
7545;SDS011;3814;51.454;12.616;2023-02-24T13:01:12;7.22;;;2.20;;
7545;SDS011;3814;51.454;12.616;2023-02-24T13:03:47;7.32;;;2.10;;
7545;SDS011;3814;51.454;12.616;2023-02-24T13:06:28;8.00;;;2.20;;
7545;SDS011;3814;51.454;12.616;2023-02-24T13:09:09;7.88;;;2.22;;
7545;SDS011;3814;51.454;12.616;2023-02-24T13:11:43;6.45;;;2.08;;
7545;SDS011;3814;51.454;12.616;2023-02-24T13:14:16;4.43;;;1.40;;
7545;SDS011;3814;51.454;12.616;2023-02-24T13:16:46;6.05;;;1.80;;
7545;SDS011;3814;51.454;12.616;2023-02-24T13:19:27;5.47;;;1.55;;
7545;SDS011;3814;51.454;12.616;2023-02-24T13:22:00;6.28;;;1.67;;
7545;SDS011;3814;51.454;12.616;2023-02-24T13:24:32;5.55;;;1.70;;
7545;SDS011;3814;51.454;12.616;2023-02-24T13:27:03;8.27;;;2.42;;
7545;SDS011;3814;51.454;12.616;2023-02-24T13:29:45;4.72;;;2.03;;
7545;SDS011;3814;51.454;12.616;2023-02-24T13:32:22;5.13;;;2.17;;
7545;SDS011;3814;51.454;12.616;2023-02-24T13:34:59;7.45;;;2.30;;
7545;SDS011;3814;51.454;12.616;2023-02-24T13:37:51;8.45;;;2.90;;
7545;SDS011;3814;51.454;12.616;2023-02-24T13:43:02;10.90;;;3.20;;
7545;SDS011;3814;51.454;12.616;2023-02-24T13:45:32;7.40;;;3.10;;
7545;SDS011;3814;51.454;12.616;2023-02-24T13:50:59;8.10;;;3.58;;
7545;SDS011;3814;51.454;12.616;2023-02-24T13:53:30;10.68;;;2.78;;
7545;SDS011;3814;51.454;12.616;2023-02-24T13:59:01;8.02;;;2.40;;
7545;SDS011;3814;51.454;12.616;2023-02-24T14:01:45;9.90;;;2.42;;
7545;SDS011;3814;51.454;12.616;2023-02-24T14:04:30;6.07;;;2.33;;
7545;SDS011;3814;51.454;12.616;2023-02-24T14:06:58;5.97;;;2.63;;
7545;SDS011;3814;51.454;12.616;2023-02-24T14:09:33;9.02;;;2.53;;
7545;SDS011;3814;51.454;12.616;2023-02-24T14:12:07;7.10;;;2.53;;
7545;SDS011;3814;51.454;12.616;2023-02-24T14:14:49;7.68;;;2.88;;
7545;SDS011;3814;51.454;12.616;2023-02-24T14:17:26;11.35;;;3.30;;
7545;SDS011;3814;51.454;12.616;2023-02-24T14:19:54;8.30;;;2.70;;
7545;SDS011;3814;51.454;12.616;2023-02-24T14:22:20;8.18;;;2.83;;
7545;SDS011;3814;51.454;12.616;2023-02-24T14:24:46;10.70;;;2.80;;
7545;SDS011;3814;51.454;12.616;2023-02-24T14:27:23;8.15;;;3.05;;
7545;SDS011;3814;51.454;12.616;2023-02-24T14:29:50;8.45;;;3.08;;
7545;SDS011;3814;51.454;12.616;2023-02-24T14:32:20;17.77;;;6.55;;
7545;SDS011;3814;51.454;12.616;2023-02-24T14:34:47;16.02;;;6.85;;
7545;SDS011;3814;51.454;12.616;2023-02-24T14:37:13;12.50;;;4.18;;
7545;SDS011;3814;51.454;12.616;2023-02-24T14:39:47;9.32;;;3.70;;
7545;SDS011;3814;51.454;12.616;2023-02-24T14:42:17;14.55;;;5.03;;
7545;SDS011;3814;51.454;12.616;2023-02-24T14:44:51;14.93;;;3.97;;
7545;SDS011;3814;51.454;12.616;2023-02-24T14:47:18;12.15;;;4.15;;
7545;SDS011;3814;51.454;12.616;2023-02-24T14:49:57;13.55;;;4.85;;
7545;SDS011;3814;51.454;12.616;2023-02-24T14:52:27;12.27;;;5.00;;
7545;SDS011;3814;51.454;12.616;2023-02-24T14:54:57;8.80;;;3.70;;
7545;SDS011;3814;51.454;12.616;2023-02-24T14:57:27;9.45;;;4.13;;
7545;SDS011;3814;51.454;12.616;2023-02-24T14:59:56;8.77;;;3.95;;
7545;SDS011;3814;51.454;12.616;2023-02-24T15:02:31;13.27;;;4.85;;
7545;SDS011;3814;51.454;12.616;2023-02-24T15:04:57;14.48;;;5.70;;
7545;SDS011;3814;51.454;12.616;2023-02-24T15:07:25;16.02;;;5.28;;
7545;SDS011;3814;51.454;12.616;2023-02-24T15:09:51;14.02;;;5.30;;
7545;SDS011;3814;51.454;12.616;2023-02-24T15:12:29;14.57;;;5.40;;
7545;SDS011;3814;51.454;12.616;2023-02-24T15:15:06;12.02;;;4.70;;
7545;SDS011;3814;51.454;12.616;2023-02-24T15:17:37;9.65;;;4.47;;
7545;SDS011;3814;51.454;12.616;2023-02-24T15:20:57;10.77;;;4.35;;
7545;SDS011;3814;51.454;12.616;2023-02-24T15:22:50;13.18;;;4.18;;
7545;SDS011;3814;51.454;12.616;2023-02-24T15:25:20;9.63;;;4.10;;
7545;SDS011;3814;51.454;12.616;2023-02-24T15:27:58;8.38;;;3.58;;
7545;SDS011;3814;51.454;12.616;2023-02-24T15:33:10;12.07;;;4.55;;
7545;SDS011;3814;51.454;12.616;2023-02-24T15:35:51;13.23;;;4.40;;
7545;SDS011;3814;51.454;12.616;2023-02-24T15:38:21;15.30;;;4.93;;
7545;SDS011;3814;51.454;12.616;2023-02-24T15:40:55;13.43;;;4.82;;
7545;SDS011;3814;51.454;12.616;2023-02-24T15:46:32;11.23;;;4.90;;
7545;SDS011;3814;51.454;12.616;2023-02-24T15:48:59;10.50;;;3.90;;
7545;SDS011;3814;51.454;12.616;2023-02-24T15:51:30;8.73;;;3.47;;
7545;SDS011;3814;51.454;12.616;2023-02-24T15:53:59;8.57;;;3.35;;
7545;SDS011;3814;51.454;12.616;2023-02-24T15:56:25;10.50;;;3.53;;
7545;SDS011;3814;51.454;12.616;2023-02-24T15:58:51;8.88;;;3.17;;
7545;SDS011;3814;51.454;12.616;2023-02-24T16:01:16;9.50;;;3.10;;
7545;SDS011;3814;51.454;12.616;2023-02-24T16:03:41;7.00;;;3.08;;
7545;SDS011;3814;51.454;12.616;2023-02-24T16:06:11;12.48;;;3.92;;
7545;SDS011;3814;51.454;12.616;2023-02-24T16:08:41;7.53;;;3.05;;
7545;SDS011;3814;51.454;12.616;2023-02-24T16:11:09;8.82;;;3.08;;
7545;SDS011;3814;51.454;12.616;2023-02-24T16:13:35;9.93;;;3.10;;
7545;SDS011;3814;51.454;12.616;2023-02-24T16:16:00;6.60;;;2.83;;
7545;SDS011;3814;51.454;12.616;2023-02-24T16:18:26;8.40;;;3.25;;
7545;SDS011;3814;51.454;12.616;2023-02-24T16:20:51;6.80;;;3.40;;
7545;SDS011;3814;51.454;12.616;2023-02-24T16:23:18;8.77;;;3.60;;
7545;SDS011;3814;51.454;12.616;2023-02-24T16:25:45;8.75;;;3.30;;
7545;SDS011;3814;51.454;12.616;2023-02-24T16:28:12;8.05;;;3.20;;
7545;SDS011;3814;51.454;12.616;2023-02-24T16:30:43;8.95;;;3.85;;
7545;SDS011;3814;51.454;12.616;2023-02-24T16:33:11;9.18;;;3.20;;
7545;SDS011;3814;51.454;12.616;2023-02-24T16:35:38;9.38;;;3.47;;
7545;SDS011;3814;51.454;12.616;2023-02-24T16:38:06;11.02;;;3.55;;
7545;SDS011;3814;51.454;12.616;2023-02-24T16:40:33;9.43;;;3.65;;
7545;SDS011;3814;51.454;12.616;2023-02-24T16:43:01;7.05;;;3.08;;
7545;SDS011;3814;51.454;12.616;2023-02-24T16:45:28;7.15;;;3.20;;
7545;SDS011;3814;51.454;12.616;2023-02-24T16:47:55;9.50;;;3.55;;
7545;SDS011;3814;51.454;12.616;2023-02-24T16:50:24;6.93;;;3.47;;
7545;SDS011;3814;51.454;12.616;2023-02-24T16:52:54;6.93;;;3.53;;
7545;SDS011;3814;51.454;12.616;2023-02-24T16:55:19;8.70;;;3.05;;
7545;SDS011;3814;51.454;12.616;2023-02-24T16:57:46;5.50;;;2.88;;